createdAt,value
2022-12-20T00:00:10.316Z,92.06
2022-12-20T00:02:56.061Z,91.49
2022-12-20T00:05:43.349Z,91.50
2022-12-20T00:08:29.108Z,91.27
2022-12-20T00:11:14.858Z,91.54
2022-12-20T00:14:00.729Z,92.09
2022-12-20T00:16:46.657Z,91.37
2022-12-20T00:19:32.123Z,91.56
2022-12-20T00:22:17.781Z,92.04
2022-12-20T00:25:05.197Z,91.61
2022-12-20T00:27:51.112Z,91.50
2022-12-20T00:30:36.590Z,91.25
2022-12-20T00:33:22.147Z,91.97
2022-12-20T00:36:08.925Z,91.95
2022-12-20T00:38:56.762Z,91.99
2022-12-20T00:41:42.385Z,91.66
2022-12-20T00:44:28.663Z,90.95
2022-12-20T00:47:14.883Z,91.47
2022-12-20T00:50:00.430Z,91.54
2022-12-20T00:52:49.637Z,91.81
2022-12-20T00:55:35.249Z,92.31
2022-12-20T00:58:20.707Z,92.46
2022-12-20T01:01:15.139Z,92.43
2022-12-20T01:04:01.670Z,93.25
2022-12-20T01:06:47.156Z,91.98
2022-12-20T01:09:32.745Z,92.52
2022-12-20T01:12:18.913Z,92.09
2022-12-20T01:15:06.194Z,91.65
2022-12-20T01:17:51.776Z,91.10
2022-12-20T01:20:37.518Z,90.45
2022-12-20T01:23:23.003Z,91.02
2022-12-20T01:26:19.303Z,91.44
2022-12-20T01:29:04.888Z,91.64
2022-12-20T01:31:50.335Z,91.41
2022-12-20T01:34:36.217Z,90.94
2022-12-20T01:37:21.837Z,91.00
2022-12-20T01:40:10.334Z,91.25
2022-12-20T01:42:56.109Z,91.07
2022-12-20T01:45:41.971Z,91.01
2022-12-20T01:48:27.627Z,91.03
2022-12-20T01:51:13.894Z,90.17
2022-12-20T01:54:08.106Z,89.99
2022-12-20T01:57:01.050Z,89.83
2022-12-20T01:59:48.944Z,90.07
2022-12-20T02:02:34.812Z,90.33
2022-12-20T02:05:23.459Z,89.56
2022-12-20T02:08:11.099Z,90.66
2022-12-20T02:11:23.621Z,90.51
2022-12-20T02:14:18.095Z,89.96
2022-12-20T02:17:31.037Z,90.81
2022-12-20T02:20:44.351Z,90.43
2022-12-20T02:24:03.869Z,89.61
2022-12-20T02:27:23.496Z,90.55
2022-12-20T02:30:21.728Z,90.60
2022-12-20T02:33:13.018Z,90.57
2022-12-20T02:35:58.345Z,89.92
2022-12-20T02:38:44.972Z,90.01
2022-12-20T02:41:42.519Z,89.45
2022-12-20T02:44:50.297Z,89.65
2022-12-20T02:48:20.190Z,89.01
2022-12-20T02:51:08.853Z,88.79
2022-12-20T02:53:54.581Z,88.59
2022-12-20T02:56:52.250Z,88.41
2022-12-20T03:00:05.637Z,88.51
2022-12-20T03:03:10.777Z,88.83
2022-12-20T03:05:57.771Z,88.92
2022-12-20T03:08:43.247Z,88.26
2022-12-20T03:11:28.711Z,87.85
2022-12-20T03:14:14.449Z,87.67
2022-12-20T03:17:00.543Z,87.33
2022-12-20T03:19:46.310Z,87.78
2022-12-20T03:22:32.557Z,88.28
2022-12-20T03:25:18.251Z,87.45
2022-12-20T03:28:03.781Z,87.50
2022-12-20T03:30:50.139Z,87.25
2022-12-20T03:33:35.938Z,87.45
2022-12-20T03:36:23.699Z,86.37
2022-12-20T03:39:09.487Z,87.54
2022-12-20T03:41:55.133Z,87.12
2022-12-20T03:44:40.653Z,88.24
2022-12-20T03:47:26.646Z,88.03
2022-12-20T03:50:12.515Z,87.07
2022-12-20T03:52:57.996Z,87.08
2022-12-20T03:55:45.639Z,88.27
2022-12-20T03:58:31.511Z,88.03
2022-12-20T04:01:28.401Z,87.50
2022-12-20T04:04:15.296Z,88.47
2022-12-20T04:07:00.910Z,86.79
2022-12-20T04:09:46.798Z,87.17
2022-12-20T04:12:32.233Z,86.75
2022-12-20T04:15:17.795Z,87.58
2022-12-20T04:18:03.313Z,87.78
2022-12-20T04:20:54.084Z,88.50
2022-12-20T04:23:42.759Z,88.13
2022-12-20T04:26:29.441Z,87.81
2022-12-20T04:29:15.283Z,88.52
2022-12-20T04:32:01.225Z,87.82
2022-12-20T04:34:47.241Z,87.67
2022-12-20T04:37:32.556Z,87.58
2022-12-20T04:40:17.917Z,88.09
2022-12-20T04:43:03.442Z,87.46
2022-12-20T04:45:52.379Z,86.71
2022-12-20T04:48:58.355Z,87.61
2022-12-20T04:51:44.994Z,87.45
2022-12-20T04:54:30.698Z,87.24
2022-12-20T04:57:16.078Z,86.87
2022-12-20T05:00:01.724Z,86.42
2022-12-20T05:02:47.825Z,86.24
2022-12-20T05:05:33.602Z,86.40
2022-12-20T05:08:19.255Z,86.24
2022-12-20T05:11:06.140Z,86.04
2022-12-20T05:13:51.551Z,86.00
2022-12-20T05:16:37.549Z,85.82
2022-12-20T05:19:24.519Z,85.48
2022-12-20T05:22:31.857Z,85.74
2022-12-20T05:25:46.983Z,84.95
2022-12-20T05:28:33.256Z,86.44
2022-12-20T05:31:19.146Z,86.56
2022-12-20T05:34:04.873Z,86.84
2022-12-20T05:36:50.652Z,86.87
2022-12-20T05:39:36.376Z,85.38
2022-12-20T05:42:21.750Z,85.98
2022-12-20T05:45:08.114Z,86.05
2022-12-20T05:47:53.681Z,86.25
2022-12-20T05:50:39.172Z,86.07
2022-12-20T05:53:24.957Z,85.39
2022-12-20T05:56:10.864Z,84.70
2022-12-20T05:58:57.552Z,84.76
2022-12-20T06:01:43.447Z,84.06
2022-12-20T06:04:31.161Z,84.70
2022-12-20T06:07:16.581Z,84.59
2022-12-20T06:10:02.338Z,85.45
2022-12-20T06:12:47.724Z,85.52
2022-12-20T06:15:33.498Z,84.56
2022-12-20T06:18:20.553Z,84.84
2022-12-20T06:21:06.392Z,84.91
2022-12-20T06:23:51.903Z,84.94
2022-12-20T06:26:37.934Z,84.73
2022-12-20T06:29:24.807Z,84.39
2022-12-20T06:32:10.699Z,84.87
2022-12-20T06:34:56.686Z,85.19
2022-12-20T06:37:42.757Z,83.85
2022-12-20T06:40:28.214Z,84.15
2022-12-20T06:43:14.230Z,83.32
2022-12-20T06:46:00.103Z,83.45
2022-12-20T06:48:46.094Z,83.11
2022-12-20T06:51:31.861Z,83.53
2022-12-20T06:54:17.320Z,83.27
2022-12-20T06:57:02.835Z,83.79
2022-12-20T06:59:48.420Z,84.35
2022-12-20T07:02:34.019Z,83.46
2022-12-20T07:05:19.543Z,84.44
2022-12-20T07:08:05.808Z,84.21
2022-12-20T07:10:52.925Z,83.66
2022-12-20T07:13:38.461Z,83.98
2022-12-20T07:16:24.456Z,83.79
2022-12-20T07:19:15.641Z,83.73
2022-12-20T07:22:01.804Z,82.99
2022-12-20T07:24:47.829Z,82.41
2022-12-20T07:27:33.581Z,82.65
2022-12-20T07:30:21.121Z,82.99
2022-12-20T07:33:07.630Z,83.14
2022-12-20T07:35:54.924Z,82.97
2022-12-20T07:38:40.590Z,82.95
2022-12-20T07:41:26.121Z,83.54
2022-12-20T07:44:11.799Z,83.84
2022-12-20T07:46:57.785Z,83.25
2022-12-20T07:49:43.105Z,83.03
2022-12-20T07:52:29.894Z,83.91
2022-12-20T07:55:15.550Z,83.08
2022-12-20T07:58:07.902Z,82.37
2022-12-20T08:00:53.489Z,82.31
2022-12-20T08:03:47.648Z,82.12
2022-12-20T08:06:34.836Z,82.63
2022-12-20T08:09:20.777Z,82.48
2022-12-20T08:12:08.747Z,82.55
2022-12-20T08:14:56.488Z,82.78
2022-12-20T08:17:42.041Z,81.65
2022-12-20T08:20:27.954Z,82.13
2022-12-20T08:23:13.392Z,81.57
2022-12-20T08:26:01.759Z,81.80
2022-12-20T08:28:47.186Z,81.92
2022-12-20T08:31:32.660Z,81.55
2022-12-20T08:34:19.365Z,81.10
2022-12-20T08:37:10.628Z,81.57
2022-12-20T08:40:00.925Z,81.13
2022-12-20T08:42:47.162Z,80.68
2022-12-20T08:45:32.694Z,80.53
2022-12-20T08:48:18.055Z,80.48
2022-12-20T08:51:08.567Z,80.88
2022-12-20T08:53:54.454Z,80.36
2022-12-20T08:56:39.776Z,80.63
2022-12-20T08:59:26.256Z,80.60
2022-12-20T09:02:12.522Z,81.18
2022-12-20T09:04:58.216Z,79.66
2022-12-20T09:07:43.722Z,79.34
2022-12-20T09:10:29.086Z,78.99
2022-12-20T09:13:14.463Z,77.72
2022-12-20T09:16:05.741Z,76.78
2022-12-20T09:19:04.236Z,77.48
2022-12-20T09:21:50.780Z,77.80
2022-12-20T09:24:38.169Z,77.79
2022-12-20T09:27:23.717Z,77.87
2022-12-20T09:30:09.667Z,77.81
2022-12-20T09:32:55.133Z,77.70
2022-12-20T09:35:47.494Z,78.41
2022-12-20T09:38:33.651Z,77.99
2022-12-20T09:41:40.754Z,77.99
2022-12-20T09:44:34.993Z,78.40
2022-12-20T09:47:24.803Z,77.13
2022-12-20T09:50:17.887Z,77.76
2022-12-20T09:53:42.827Z,77.58
2022-12-20T09:56:37.895Z,77.34
2022-12-20T09:59:23.520Z,78.43
2022-12-20T10:02:53.048Z,78.10
2022-12-20T10:05:37.133Z,77.78
2022-12-20T10:09:00.106Z,77.23
2022-12-20T10:12:25.432Z,77.11
2022-12-20T10:15:37.555Z,76.91
2022-12-20T10:18:59.189Z,77.23
2022-12-20T10:22:09.567Z,77.27
2022-12-20T10:25:16.004Z,76.51
2022-12-20T10:28:10.329Z,77.07
2022-12-20T10:31:02.980Z,76.73
2022-12-20T10:33:48.559Z,75.89
2022-12-20T10:36:37.338Z,75.59
2022-12-20T10:39:42.722Z,75.54
2022-12-20T10:42:42.443Z,76.02
2022-12-20T10:45:39.319Z,75.29
2022-12-20T10:48:41.112Z,75.61
2022-12-20T10:51:26.421Z,76.48
2022-12-20T10:54:31.579Z,75.24
2022-12-20T10:57:21.736Z,75.39
2022-12-20T11:00:26.594Z,74.54
2022-12-20T11:03:22.191Z,75.15
2022-12-20T11:06:17.079Z,75.15
2022-12-20T11:09:35.545Z,75.10
2022-12-20T11:12:21.220Z,75.86
2022-12-20T11:15:31.650Z,75.42
2022-12-20T11:18:39.774Z,76.68
2022-12-20T11:22:03.559Z,76.27
2022-12-20T11:25:31.151Z,77.55
2022-12-20T11:29:04.329Z,79.42
2022-12-20T11:32:28.271Z,80.01
2022-12-20T11:35:39.268Z,80.52
2022-12-20T11:38:58.911Z,80.72
2022-12-20T11:42:38.518Z,79.85
2022-12-20T11:45:30.150Z,80.57
2022-12-20T11:48:46.537Z,81.45
2022-12-20T11:51:46.706Z,80.75
2022-12-20T11:54:43.804Z,81.16
2022-12-20T11:58:02.084Z,81.25
2022-12-20T12:00:56.980Z,80.50
2022-12-20T12:04:04.541Z,80.47
2022-12-20T12:06:53.381Z,81.32
2022-12-20T12:10:23.427Z,81.69
2022-12-20T12:13:18.980Z,81.00
2022-12-20T12:16:16.642Z,81.11
2022-12-20T12:19:03.596Z,81.52
2022-12-20T12:21:59.415Z,80.27
2022-12-20T12:24:52.413Z,81.38
2022-12-20T12:27:38.981Z,80.41
2022-12-20T12:30:25.008Z,81.03
2022-12-20T12:33:25.802Z,80.16
2022-12-20T12:36:20.787Z,79.63
2022-12-20T12:40:02.876Z,79.42
2022-12-20T12:42:49.556Z,79.67
2022-12-20T12:45:45.515Z,79.92
2022-12-20T12:48:56.716Z,80.10
2022-12-20T12:51:50.268Z,79.37
2022-12-20T12:54:40.768Z,79.29
2022-12-20T12:57:26.398Z,78.56
2022-12-20T13:01:02.416Z,78.19
2022-12-20T13:03:54.264Z,76.97
2022-12-20T13:06:53.730Z,78.05
2022-12-20T13:09:41.973Z,78.26
2022-12-20T13:12:36.837Z,78.20
2022-12-20T13:15:22.305Z,78.21
2022-12-20T13:18:13.813Z,78.12
2022-12-20T13:21:38.848Z,78.25
2022-12-20T13:24:53.351Z,77.41
2022-12-20T13:27:40.901Z,77.68
2022-12-20T13:30:28.327Z,77.98
2022-12-20T13:33:24.479Z,77.97
2022-12-20T13:36:10.223Z,77.42
2022-12-20T13:39:21.614Z,78.06
2022-12-20T13:42:34.266Z,77.27
2022-12-20T13:45:19.881Z,77.63
2022-12-20T13:48:11.358Z,77.78
2022-12-20T13:50:58.169Z,78.13
2022-12-20T13:53:56.048Z,76.93
2022-12-20T13:56:50.423Z,77.31
2022-12-20T13:59:35.993Z,77.67
2022-12-20T14:02:34.580Z,77.05
2022-12-20T14:05:27.248Z,77.16
2022-12-20T14:08:21.791Z,77.08
2022-12-20T14:11:19.500Z,76.80
2022-12-20T14:14:05.088Z,77.02
2022-12-20T14:16:50.521Z,77.18
2022-12-20T14:19:36.168Z,77.64
2022-12-20T14:22:21.459Z,77.25
2022-12-20T14:25:09.126Z,77.65
2022-12-20T14:27:55.927Z,77.33
2022-12-20T14:30:44.746Z,77.60
2022-12-20T14:33:34.633Z,76.74
2022-12-20T14:36:21.483Z,76.46
2022-12-20T14:39:29.489Z,76.56
2022-12-20T14:42:19.258Z,77.17
2022-12-20T14:45:10.899Z,76.92
2022-12-20T14:48:07.390Z,77.24
2022-12-20T14:50:53.997Z,76.81
2022-12-20T14:53:40.446Z,76.48
2022-12-20T14:56:31.743Z,76.71
2022-12-20T14:59:31.739Z,76.13
2022-12-20T15:02:56.028Z,76.34
2022-12-20T15:05:51.847Z,75.70
2022-12-20T15:08:38.286Z,75.70
2022-12-20T15:11:24.174Z,76.26
2022-12-20T15:14:35.151Z,75.54
2022-12-20T15:17:20.607Z,75.55
2022-12-20T15:20:11.833Z,75.90
2022-12-20T15:22:57.347Z,75.43
2022-12-20T15:25:45.540Z,76.01
2022-12-20T15:28:32.643Z,75.58
2022-12-20T15:31:22.235Z,75.83
2022-12-20T15:34:35.246Z,74.93
2022-12-20T15:37:21.431Z,75.16
2022-12-20T15:40:13.303Z,75.84
2022-12-20T15:42:59.143Z,76.01
2022-12-20T15:45:47.578Z,75.73
2022-12-20T15:48:33.261Z,75.89
2022-12-20T15:51:33.900Z,75.87
2022-12-20T15:54:22.907Z,75.99
2022-12-20T15:57:14.068Z,75.28
2022-12-20T16:00:02.747Z,76.43
2022-12-20T16:02:50.666Z,76.50
2022-12-20T16:05:36.560Z,77.03
2022-12-20T16:08:22.264Z,77.13
2022-12-20T16:11:24.312Z,76.98
2022-12-20T16:14:21.176Z,77.84
2022-12-20T16:17:06.762Z,77.92
2022-12-20T16:19:52.641Z,78.98
2022-12-20T16:22:38.059Z,79.14
2022-12-20T16:25:31.325Z,79.25
2022-12-20T16:28:17.983Z,79.98
2022-12-20T16:31:17.588Z,79.69
2022-12-20T16:34:12.100Z,79.46
2022-12-20T16:36:57.855Z,79.05
2022-12-20T16:39:43.785Z,78.73
2022-12-20T16:42:29.254Z,79.04
2022-12-20T16:45:19.180Z,78.24
2022-12-20T16:48:04.917Z,80.07
2022-12-20T16:50:50.207Z,78.23
2022-12-20T16:54:02.134Z,78.54
2022-12-20T16:56:44.039Z,78.46
2022-12-20T16:59:29.695Z,78.07
2022-12-20T17:02:34.961Z,76.93
2022-12-20T17:05:46.991Z,76.73
2022-12-20T17:11:37.466Z,77.04
2022-12-20T17:14:22.950Z,76.74
2022-12-20T17:17:08.436Z,77.19
2022-12-20T17:19:54.764Z,77.54
2022-12-20T17:25:48.731Z,75.84
2022-12-20T17:28:52.928Z,75.30
2022-12-20T17:31:42.923Z,74.60
2022-12-20T17:34:30.487Z,75.10
2022-12-20T17:37:17.469Z,74.27
2022-12-20T17:40:02.846Z,74.63
2022-12-20T17:42:49.185Z,74.72
2022-12-20T17:45:36.291Z,74.90
2022-12-20T17:48:27.399Z,74.82
2022-12-20T17:51:21.647Z,74.49
2022-12-20T17:54:16.077Z,75.02
2022-12-20T17:57:01.617Z,74.27
2022-12-20T17:59:47.343Z,74.28
2022-12-20T18:02:32.896Z,74.46
2022-12-20T18:05:18.725Z,74.61
2022-12-20T18:08:04.256Z,74.80
2022-12-20T18:10:50.046Z,73.79
2022-12-20T18:13:36.361Z,73.95
2022-12-20T18:16:28.856Z,74.02
2022-12-20T18:19:18.999Z,73.96
2022-12-20T18:22:05.101Z,73.71
2022-12-20T18:24:50.467Z,74.00
2022-12-20T18:27:43.115Z,73.04
2022-12-20T18:30:30.196Z,73.46
2022-12-20T18:33:15.956Z,74.87
2022-12-20T18:36:08.661Z,74.33
2022-12-20T18:38:54.908Z,73.74
2022-12-20T18:41:42.915Z,73.53
2022-12-20T18:44:28.868Z,73.21
2022-12-20T18:47:14.165Z,73.91
2022-12-20T18:50:00.727Z,74.42
2022-12-20T18:52:47.109Z,74.35
2022-12-20T18:55:36.161Z,73.38
2022-12-20T18:58:21.846Z,73.46
2022-12-20T19:01:35.680Z,73.87
2022-12-20T19:04:24.825Z,74.73
2022-12-20T19:07:11.241Z,73.91
2022-12-20T19:09:56.499Z,73.61
2022-12-20T19:12:41.813Z,74.23
2022-12-20T19:15:27.296Z,73.80
2022-12-20T19:18:13.129Z,73.71
2022-12-20T19:21:27.256Z,73.24
2022-12-20T19:24:12.661Z,73.38
2022-12-20T19:26:58.017Z,72.93
2022-12-20T19:29:43.305Z,73.44
2022-12-20T19:32:28.865Z,72.71
2022-12-20T19:35:52.878Z,73.22
2022-12-20T19:38:19.748Z,73.80
2022-12-20T19:41:05.853Z,73.07
2022-12-20T19:43:52.398Z,73.22
2022-12-20T19:46:39.319Z,73.92
2022-12-20T19:49:25.352Z,73.46
2022-12-20T19:52:11.304Z,73.52
2022-12-20T19:54:56.578Z,73.13
2022-12-20T19:57:42.067Z,73.55
2022-12-20T20:00:27.466Z,72.55
2022-12-20T20:03:13.901Z,73.53
2022-12-20T20:06:00.286Z,73.80
2022-12-20T20:08:46.205Z,74.28
2022-12-20T20:11:31.576Z,73.78
2022-12-20T20:14:16.849Z,73.22
2022-12-20T20:17:02.235Z,73.18
2022-12-20T20:19:48.582Z,73.05
2022-12-20T20:22:35.319Z,73.00
2022-12-20T20:25:20.778Z,72.92
2022-12-20T20:28:06.188Z,72.95
2022-12-20T20:30:52.556Z,72.92
2022-12-20T20:33:38.636Z,72.93
2022-12-20T20:36:24.641Z,72.72
2022-12-20T20:39:10.406Z,73.75
2022-12-20T20:41:55.877Z,73.87
2022-12-20T20:44:41.334Z,73.87
2022-12-20T20:47:26.676Z,74.11
2022-12-20T20:50:13.149Z,73.54
2022-12-20T20:52:58.566Z,73.70
2022-12-20T20:55:44.155Z,74.54
2022-12-20T20:58:29.515Z,73.95
2022-12-20T21:01:15.297Z,74.18
2022-12-20T21:04:01.222Z,73.37
2022-12-20T21:06:47.322Z,73.61
2022-12-20T21:09:33.220Z,73.03
2022-12-20T21:12:19.524Z,72.82
2022-12-20T21:15:24.371Z,73.55
2022-12-20T21:18:10.975Z,72.76
2022-12-20T21:20:57.195Z,72.58
2022-12-20T21:23:46.357Z,73.40
2022-12-20T21:26:32.025Z,72.88
2022-12-20T21:29:17.797Z,73.69
2022-12-20T21:32:03.431Z,73.98
2022-12-20T21:34:49.118Z,73.51
2022-12-20T21:37:34.501Z,72.29
2022-12-20T21:40:19.756Z,71.77
2022-12-20T21:43:05.101Z,72.61
2022-12-20T21:45:51.118Z,72.26
2022-12-20T21:48:39.774Z,72.25
2022-12-20T21:51:27.410Z,73.17
2022-12-20T21:54:12.792Z,72.47
2022-12-20T21:56:58.233Z,72.44
2022-12-20T21:59:43.548Z,72.28
2022-12-20T22:02:30.064Z,72.78
2022-12-20T22:05:16.017Z,72.71
2022-12-20T22:08:01.677Z,72.92
2022-12-20T22:10:47.484Z,72.73
2022-12-20T22:13:40.815Z,72.62
2022-12-20T22:16:30.925Z,72.64
2022-12-20T22:19:16.575Z,72.36
2022-12-20T22:22:02.257Z,72.61
2022-12-20T22:24:47.690Z,72.47
2022-12-20T22:27:33.000Z,72.64
2022-12-20T22:30:19.095Z,72.86
2022-12-20T22:33:04.636Z,72.52
2022-12-20T22:35:50.124Z,72.15
2022-12-20T22:38:36.015Z,73.06
2022-12-20T22:41:26.497Z,72.59
2022-12-20T22:44:12.125Z,73.41
2022-12-20T22:50:01.447Z,73.70
2022-12-20T22:52:47.119Z,73.52
2022-12-20T22:55:34.854Z,74.20
2022-12-20T22:58:20.765Z,73.64
2022-12-20T23:01:10.424Z,73.22
2022-12-20T23:03:56.321Z,74.26
2022-12-20T23:06:42.133Z,74.79
2022-12-20T23:09:27.966Z,74.30
2022-12-20T23:12:37.059Z,73.51
2022-12-20T23:15:40.550Z,75.06
2022-12-20T23:18:26.047Z,73.76
2022-12-20T23:21:30.832Z,73.18
2022-12-20T23:24:16.894Z,73.55
2022-12-20T23:27:02.828Z,73.75
2022-12-20T23:29:48.305Z,74.21
2022-12-20T23:32:33.978Z,73.67
2022-12-20T23:35:20.698Z,73.33
2022-12-20T23:38:06.297Z,72.92
2022-12-20T23:40:52.128Z,73.05
2022-12-20T23:43:38.071Z,72.76
2022-12-20T23:46:24.778Z,72.57
2022-12-20T23:49:10.540Z,72.19
2022-12-20T23:51:55.846Z,73.01
2022-12-20T23:54:41.220Z,72.90
2022-12-20T23:57:30.534Z,72.43
